Time;durP1;ratioP1;P1;durP2;ratioP2;P2;SDS_P1;SDS_P2;PMS_P1;PMS_P2;Temp;Humidity;BMP_temperature;BMP_pressure;BME280_temperature;BME280_humidity;BME280_pressure;Samples;Min_cycle;Max_cycle;Signal;HPM_P1;HPM_P2
2023/06/19 00:00:27;;;;;;;7.18;6.53;;;;;;;21.16;65.41;100716.38;6181196;23;20013;-84
2023/06/19 00:02:52;;;;;;;7.38;6.72;;;;;;;21.13;65.36;100724.78;6180297;23;20128;-84
2023/06/19 00:05:18;;;;;;;9.15;6.70;;;;;;;21.06;65.74;100725.72;6181129;23;20079;-84
2023/06/19 00:07:43;;;;;;;8.95;7.00;;;;;;;21.03;65.91;100729.59;6179349;23;20001;-83
2023/06/19 00:10:08;;;;;;;7.88;6.60;;;;;;;20.96;66.18;100726.84;6202916;23;20060;-83
2023/06/19 00:12:34;;;;;;;8.85;7.18;;;;;;;20.91;66.77;100737.25;6179981;23;20016;-84
2023/06/19 00:15:02;;;;;;;7.90;7.10;;;;;;;20.82;66.85;100746.38;6179541;23;20001;-84
2023/06/19 00:17:29;;;;;;;9.85;7.00;;;;;;;20.76;66.78;100741.75;6178767;23;20611;-83
2023/06/19 00:19:54;;;;;;;9.27;7.35;;;;;;;20.72;67.44;100744.97;6180855;23;20001;-83
2023/06/19 00:22:20;;;;;;;7.68;6.82;;;;;;;20.69;67.88;100753.34;6181923;23;20011;-83
2023/06/19 00:24:45;;;;;;;8.68;6.90;;;;;;;20.68;67.72;100749.84;6180481;23;20091;-83
2023/06/19 00:27:12;;;;;;;7.45;6.65;;;;;;;20.66;67.54;100746.53;6180845;23;20001;-82
2023/06/19 00:29:38;;;;;;;9.15;7.00;;;;;;;20.57;67.91;100756.47;6180373;23;20009;-83
2023/06/19 00:32:03;;;;;;;9.07;7.10;;;;;;;20.50;68.56;100763.56;6180890;23;20462;-84
2023/06/19 00:34:30;;;;;;;7.50;6.80;;;;;;;20.47;68.95;100771.94;6181724;23;20001;-84
2023/06/19 00:36:57;;;;;;;8.77;6.88;;;;;;;20.37;69.13;100757.94;6181322;23;20619;-84
2023/06/19 00:39:25;;;;;;;8.23;6.90;;;;;;;20.30;69.45;100771.19;6180843;23;20426;-84
2023/06/19 00:41:52;;;;;;;9.75;7.43;;;;;;;20.28;69.61;100775.88;6180768;23;20004;-84
2023/06/19 00:44:17;;;;;;;9.93;7.05;;;;;;;20.24;70.07;100776.41;6181674;23;20005;-84
2023/06/19 00:46:44;;;;;;;9.00;7.28;;;;;;;20.21;69.98;100782.09;6180627;23;20416;-83
2023/06/19 00:49:10;;;;;;;7.00;6.30;;;;;;;20.19;69.63;100771.59;6180980;23;20028;-84
2023/06/19 00:51:36;;;;;;;6.70;6.00;;;;;;;20.17;69.87;100776.28;6179701;23;20001;-84
2023/06/19 00:54:02;;;;;;;6.57;5.70;;;;;;;20.17;69.93;100784.31;6181183;23;20005;-84
2023/06/19 00:56:28;;;;;;;6.80;6.07;;;;;;;20.15;70.01;100791.66;6182544;23;20020;-84
2023/06/19 00:58:55;;;;;;;6.30;5.70;;;;;;;20.13;70.50;100792.84;6181114;23;20029;-83
2023/06/19 01:01:23;;;;;;;6.90;6.20;;;;;;;20.11;70.51;100794.88;6182657;23;20432;-84
2023/06/19 01:03:48;;;;;;;6.65;5.57;;;;;;;20.05;71.12;100793.75;6182547;23;20001;-84
2023/06/19 01:06:22;;;;;;;6.65;5.95;;;;;;;20.03;71.44;100798.44;6181921;23;20075;-84
2023/06/19 01:09:02;;;;;;;7.22;5.70;;;;;;;19.99;71.25;100797.91;6182614;23;20009;-83
2023/06/19 01:11:33;;;;;;;6.80;6.10;;;;;;;19.94;72.01;100794.94;6182378;23;20005;-84
2023/06/19 01:14:03;;;;;;;6.95;5.85;;;;;;;19.92;72.03;100796.13;6181702;23;20024;-84
2023/06/19 01:16:30;;;;;;;7.45;5.78;;;;;;;19.89;72.59;100801.81;6180634;23;20005;-84
2023/06/19 01:18:56;;;;;;;5.90;5.30;;;;;;;19.87;73.04;100803.84;6180716;23;20005;-84
2023/06/19 01:21:21;;;;;;;7.78;5.13;;;;;;;19.85;73.77;100801.34;6180382;23;20017;-84
2023/06/19 01:23:47;;;;;;;6.32;5.30;;;;;;;19.79;74.25;100796.72;6183013;23;20012;-83
2023/06/19 01:26:13;;;;;;;5.00;4.60;;;;;;;19.77;74.41;100806.72;6181575;23;20008;-84
2023/06/19 01:28:41;;;;;;;7.28;4.85;;;;;;;19.73;74.72;100808.09;6182524;23;20437;-84
2023/06/19 01:31:33;;;;;;;6.35;5.00;;;;;;;19.74;73.96;100807.09;6181593;23;20009;-84
2023/06/19 01:34:00;;;;;;;5.22;4.72;;;;;;;19.67;75.17;100795.44;6172533;23;20321;-82
2023/06/19 01:36:25;;;;;;;6.60;5.28;;;;;;;19.65;75.87;100805.47;6180853;23;20428;-83
2023/06/19 01:38:53;;;;;;;6.80;4.38;;;;;;;19.60;75.81;100802.44;6182452;23;20064;-83
2023/06/19 01:41:19;;;;;;;5.90;4.60;;;;;;;19.55;76.31;100815.50;6179991;23;20076;-83
2023/06/19 01:43:46;;;;;;;4.82;4.32;;;;;;;19.53;76.61;100815.66;6182686;23;20032;-84
2023/06/19 01:46:11;;;;;;;5.47;4.72;;;;;;;19.49;77.20;100808.16;6182689;23;20001;-83
2023/06/19 01:48:38;;;;;;;5.82;4.78;;;;;;;19.46;77.57;100821.84;6181039;23;20009;-83
2023/06/19 01:51:03;;;;;;;5.72;4.63;;;;;;;19.37;78.19;100813.84;6181803;23;20001;-84
2023/06/19 01:53:44;;;;;;;5.38;4.40;;;;;;;19.39;77.70;100824.34;6206217;23;20056;-84
2023/06/19 01:56:09;;;;;;;5.32;4.82;;;;;;;19.33;79.01;100833.88;6179736;23;20009;-82
2023/06/19 01:58:38;;;;;;;4.90;4.40;;;;;;;19.29;79.39;100837.91;6183547;23;20009;-84
2023/06/19 02:01:03;;;;;;;4.82;4.32;;;;;;;19.27;79.80;100833.75;6182150;23;20005;-84
2023/06/19 02:03:29;;;;;;;4.78;3.92;;;;;;;19.21;80.78;100840.59;6181170;23;20630;-84
2023/06/19 02:05:56;;;;;;;6.55;4.28;;;;;;;19.18;81.22;100838.22;6181711;23;20531;-84
2023/06/19 02:08:21;;;;;;;5.00;3.85;;;;;;;19.18;81.32;100835.56;6181021;23;20368;-82
2023/06/19 02:10:46;;;;;;;4.90;4.10;;;;;;;19.15;81.80;100851.91;6181231;23;20012;-83
2023/06/19 02:13:12;;;;;;;5.25;3.42;;;;;;;19.17;82.21;100839.25;6181785;23;20015;-84
2023/06/19 02:15:38;;;;;;;4.20;3.50;;;;;;;19.15;82.77;100849.25;6182973;23;20087;-83
2023/06/19 02:18:04;;;;;;;4.80;3.50;;;;;;;19.13;82.97;100840.56;6180911;23;20008;-84
2023/06/19 02:20:30;;;;;;;6.18;3.63;;;;;;;19.08;83.29;100834.91;6181775;23;20023;-83
2023/06/19 02:22:56;;;;;;;4.97;3.47;;;;;;;19.03;84.12;100842.59;6179960;23;20087;-83
2023/06/19 02:25:21;;;;;;;3.63;3.17;;;;;;;19.01;84.44;100849.94;6178507;23;20032;-83
2023/06/19 02:27:47;;;;;;;5.40;3.47;;;;;;;18.96;84.83;100844.28;6181808;23;20116;-83
2023/06/19 02:30:13;;;;;;;4.47;3.47;;;;;;;18.91;85.43;100843.94;6180705;23;20009;-83
2023/06/19 02:32:39;;;;;;;3.67;3.15;;;;;;;18.87;85.95;100842.63;6182630;23;20016;-82
2023/06/19 02:35:10;;;;;;;4.47;3.05;;;;;;;18.84;86.31;100845.63;6180765;23;20005;-84
2023/06/19 02:37:36;;;;;;;3.65;2.70;;;;;;;18.83;86.35;100846.63;6182493;23;20339;-83
2023/06/19 02:40:04;;;;;;;5.72;2.88;;;;;;;18.81;86.83;100848.59;6182270;23;20458;-84
2023/06/19 02:42:31;;;;;;;4.38;2.80;;;;;;;18.79;86.99;100844.25;6181482;23;20012;-83
2023/06/19 02:45:02;;;;;;;6.85;3.25;;;;;;;18.74;87.53;100843.94;6181307;23;20012;-83
2023/06/19 02:47:28;;;;;;;4.05;3.00;;;;;;;18.77;87.31;100848.09;6182190;23;20009;-84
2023/06/19 02:49:54;;;;;;;5.07;3.25;;;;;;;18.73;87.81;100847.59;6180795;23;20015;-84
2023/06/19 02:52:19;;;;;;;3.90;3.05;;;;;;;18.71;88.13;100854.94;6181466;23;20079;-84
2023/06/19 02:54:44;;;;;;;4.25;3.13;;;;;;;18.67;88.76;100858.94;6182194;23;20477;-83
2023/06/19 02:57:10;;;;;;;4.00;3.15;;;;;;;18.62;89.59;100855.94;6181136;23;20005;-84
2023/06/19 02:59:36;;;;;;;3.90;3.30;;;;;;;18.60;89.61;100865.06;6181765;23;20013;-84
2023/06/19 03:02:02;;;;;;;4.03;3.10;;;;;;;18.54;90.19;100861.22;6181822;23;20055;-83
2023/06/19 03:04:28;;;;;;;3.60;3.30;;;;;;;18.51;90.42;100858.91;6182284;23;20005;-84
2023/06/19 03:06:53;;;;;;;4.93;2.97;;;;;;;18.53;90.80;100867.56;6181189;23;20005;-84
2023/06/19 03:09:18;;;;;;;3.90;3.10;;;;;;;18.53;90.60;100867.56;6179802;23;20008;-83
2023/06/19 03:11:44;;;;;;;3.17;2.88;;;;;;;18.50;91.20;100878.53;6179917;23;20008;-83
2023/06/19 03:14:09;;;;;;;4.13;3.30;;;;;;;18.45;91.62;100872.88;6180795;23;20345;-83
2023/06/19 03:16:35;;;;;;;5.53;3.03;;;;;;;18.42;91.79;100881.19;6180868;23;20420;-83
2023/06/19 03:19:01;;;;;;;4.75;3.30;;;;;;;18.40;91.98;100883.16;6179872;23;20008;-83
2023/06/19 03:21:27;;;;;;;3.85;3.40;;;;;;;18.40;92.24;100872.50;6180194;23;20023;-83
2023/06/19 03:23:52;;;;;;;4.72;3.60;;;;;;;18.42;91.66;100879.38;6181021;23;20080;-83
2023/06/19 03:26:19;;;;;;;4.45;3.70;;;;;;;18.40;92.14;100877.84;6181052;23;20008;-82
2023/06/19 03:28:46;;;;;;;4.97;4.00;;;;;;;18.34;92.67;100884.66;6180450;23;20005;-84
2023/06/19 03:31:11;;;;;;;4.90;3.78;;;;;;;18.28;93.33;100879.16;6203655;23;20001;-83
2023/06/19 03:33:38;;;;;;;5.97;3.75;;;;;;;18.27;93.32;100869.50;6181094;23;20338;-84
2023/06/19 03:36:04;;;;;;;6.97;4.13;;;;;;;18.22;93.70;100880.63;6181625;23;20450;-84
2023/06/19 03:38:29;;;;;;;8.20;4.10;;;;;;;18.26;93.95;100881.16;6181792;23;20009;-84
2023/06/19 03:40:54;;;;;;;4.85;4.35;;;;;;;18.26;94.04;100886.47;6180690;23;20079;-84
2023/06/19 03:43:20;;;;;;;7.13;4.20;;;;;;;18.26;94.43;100897.13;6179871;23;20083;-85
2023/06/19 03:45:45;;;;;;;5.20;4.43;;;;;;;18.27;94.76;100904.13;6181571;23;20000;-84
2023/06/19 03:48:11;;;;;;;4.63;3.95;;;;;;;18.30;94.51;100901.97;6179712;23;20005;-84
2023/06/19 03:50:39;;;;;;;5.10;4.38;;;;;;;18.32;95.00;100904.47;6180986;23;20032;-84
2023/06/19 03:53:04;;;;;;;4.70;4.15;;;;;;;18.35;95.26;100907.63;6181105;23;20005;-84
2023/06/19 03:55:30;;;;;;;6.03;4.13;;;;;;;18.39;94.91;100908.13;6180817;23;20005;-85
2023/06/19 03:57:56;;;;;;;6.22;4.22;;;;;;;18.39;95.27;100914.31;6181419;23;20012;-83
2023/06/19 04:00:22;;;;;;;4.90;4.38;;;;;;;18.40;95.61;100920.47;6179920;23;20005;-84
2023/06/19 04:02:47;;;;;;;5.53;3.95;;;;;;;18.42;95.64;100914.00;6177448;23;20091;-82
2023/06/19 04:05:17;;;;;;;6.20;4.38;;;;;;;18.43;96.27;100922.84;6180557;23;20036;-83
2023/06/19 04:07:43;;;;;;;4.80;4.35;;;;;;;18.43;96.59;100928.16;6178610;23;20013;-84
2023/06/19 04:10:11;;;;;;;5.78;4.15;;;;;;;18.41;96.81;100928.31;6178880;23;20056;-83
2023/06/19 04:12:37;;;;;;;5.07;4.50;;;;;;;18.43;96.89;100929.00;6181137;23;20006;-83
2023/06/19 04:15:04;;;;;;;6.65;4.80;;;;;;;18.44;97.11;100938.66;6181432;23;20008;-82
2023/06/19 04:17:29;;;;;;;6.18;4.45;;;;;;;18.46;97.03;100936.66;6179173;23;20015;-81
2023/06/19 04:19:54;;;;;;;5.43;4.70;;;;;;;18.49;96.99;100935.50;6180843;23;20392;-82
2023/06/19 04:22:21;;;;;;;7.40;4.50;;;;;;;18.52;96.79;100945.84;6180835;23;20016;-83
2023/06/19 04:24:47;;;;;;;6.05;4.60;;;;;;;18.53;97.42;100946.66;6178112;23;20143;-81
2023/06/19 04:27:12;;;;;;;5.80;4.82;;;;;;;18.55;97.49;100942.00;6181050;23;20423;-82
2023/06/19 04:29:42;;;;;;;5.88;4.70;;;;;;;18.57;97.57;100948.84;6182857;23;20005;-82
2023/06/19 04:32:13;;;;;;;8.65;4.70;;;;;;;18.57;97.97;100948.84;6183011;23;20427;-84
2023/06/19 04:34:39;;;;;;;5.93;4.70;;;;;;;18.60;97.89;100953.84;6183186;23;20079;-83
2023/06/19 04:37:05;;;;;;;7.05;5.20;;;;;;;18.59;98.19;100962.84;6181842;23;20051;-83
2023/06/19 04:39:30;;;;;;;6.03;5.43;;;;;;;18.59;98.59;100959.34;6180726;23;20009;-83
2023/06/19 04:41:56;;;;;;;6.07;4.95;;;;;;;18.61;98.40;100955.50;6182454;23;20084;-83
2023/06/19 04:44:55;;;;;;;6.35;5.03;;;;;;;18.64;97.21;100960.53;6182615;23;20052;-84
2023/06/19 04:47:23;;;;;;;6.18;5.03;;;;;;;18.70;98.02;100967.88;6182720;23;20088;-84
2023/06/19 04:49:48;;;;;;;9.27;5.70;;;;;;;18.73;97.58;100970.22;6182859;23;20008;-83
2023/06/19 04:52:14;;;;;;;8.45;5.30;;;;;;;18.78;97.76;100977.72;6181935;23;20408;-86
2023/06/19 04:54:40;;;;;;;6.20;5.50;;;;;;;18.82;97.72;100972.94;6183644;23;19997;-82
2023/06/19 04:57:21;;;;;;;6.80;4.97;;;;;;;18.88;96.69;100972.28;6183522;23;20131;-84
2023/06/19 04:59:46;;;;;;;8.23;5.50;;;;;;;18.87;97.76;100971.44;6182252;23;20005;-83
2023/06/19 05:02:12;;;;;;;6.40;5.80;;;;;;;18.87;97.47;100967.94;6182756;23;20075;-83
2023/06/19 05:04:37;;;;;;;6.30;5.32;;;;;;;18.89;97.64;100972.09;6182557;23;20008;-82
2023/06/19 05:07:03;;;;;;;8.02;5.53;;;;;;;18.93;97.52;100964.59;6182817;23;20005;-82
2023/06/19 05:09:29;;;;;;;6.57;5.25;;;;;;;18.93;97.45;100972.59;6182787;23;20005;-83
2023/06/19 05:11:54;;;;;;;7.22;5.32;;;;;;;18.95;97.33;100970.59;6180747;23;20012;-84
2023/06/19 05:14:19;;;;;;;6.30;5.63;;;;;;;18.99;97.04;100975.44;6181936;23;20419;-83
2023/06/19 05:16:45;;;;;;;7.15;5.80;;;;;;;18.99;97.03;100985.28;6182791;23;20005;-83
2023/06/19 05:19:10;;;;;;;7.25;5.38;;;;;;;19.00;97.08;100981.63;6181931;23;20127;-83
2023/06/19 05:21:36;;;;;;;11.68;6.20;;;;;;;19.03;97.06;100992.78;6181246;23;20078;-84
2023/06/19 05:24:01;;;;;;;7.28;5.47;;;;;;;19.06;96.89;100986.28;6182462;23;20009;-82
2023/06/19 05:26:27;;;;;;;7.22;6.10;;;;;;;19.10;96.56;100995.63;6204867;23;20074;-84
2023/06/19 05:28:52;;;;;;;9.13;6.47;;;;;;;19.11;96.48;100994.63;6182396;23;20131;-84
2023/06/19 05:31:19;;;;;;;7.53;5.85;;;;;;;19.15;96.29;100995.94;6182046;23;20001;-84
2023/06/19 05:33:44;;;;;;;8.40;6.05;;;;;;;19.14;96.20;100998.78;6181496;23;20057;-83
2023/06/19 05:36:11;;;;;;;7.25;5.80;;;;;;;19.13;96.03;101002.47;6182097;23;20025;-82
2023/06/19 05:38:36;;;;;;;8.18;6.20;;;;;;;19.18;96.15;101002.78;6182501;23;20035;-82
2023/06/19 05:41:02;;;;;;;6.53;5.82;;;;;;;19.20;95.77;101009.63;6181279;23;20483;-83
2023/06/19 05:43:28;;;;;;;9.40;6.40;;;;;;;19.22;95.71;101004.16;6182963;23;20051;-83
2023/06/19 05:45:55;;;;;;;7.82;6.50;;;;;;;19.21;95.26;101007.78;6181846;23;20004;-85
2023/06/19 05:48:21;;;;;;;10.10;6.18;;;;;;;19.25;95.26;101015.31;6179962;23;20012;-85
2023/06/19 05:50:49;;;;;;;7.47;6.78;;;;;;;19.31;94.72;101006.66;6182136;23;20005;-83
2023/06/19 05:53:15;;;;;;;7.13;6.43;;;;;;;19.35;93.60;101008.00;6182636;23;20024;-83
2023/06/19 05:55:43;;;;;;;8.80;6.35;;;;;;;19.45;93.59;101006.97;6180499;23;20004;-84
2023/06/19 05:58:09;;;;;;;7.38;6.68;;;;;;;19.49;92.29;101002.97;6182446;23;20072;-84
2023/06/19 06:00:43;;;;;;;6.97;6.28;;;;;;;19.55;91.35;101002.34;6183292;23;20360;-83
2023/06/19 06:03:08;;;;;;;6.88;6.28;;;;;;;19.64;90.73;101004.84;6181191;23;20008;-83
2023/06/19 06:05:36;;;;;;;7.28;6.68;;;;;;;19.69;88.39;101015.03;6182213;23;20076;-83
2023/06/19 06:08:01;;;;;;;8.18;7.47;;;;;;;19.68;87.47;101021.38;6182777;23;20095;-83
2023/06/19 06:10:27;;;;;;;8.20;7.15;;;;;;;19.72;86.80;101025.34;6181171;23;20009;-83
2023/06/19 06:12:52;;;;;;;9.13;7.57;;;;;;;19.75;86.92;101018.84;6182784;23;20008;-83
2023/06/19 06:15:17;;;;;;;8.38;7.35;;;;;;;19.79;86.64;101021.00;6181164;23;20011;-84
2023/06/19 06:17:43;;;;;;;8.48;7.68;;;;;;;19.86;86.33;101032.69;6182477;23;20331;-83
2023/06/19 06:20:12;;;;;;;8.93;8.02;;;;;;;19.88;85.54;101046.69;6181883;23;20040;-83
2023/06/19 06:22:42;;;;;;;9.40;8.60;;;;;;;19.91;83.71;101049.03;6180461;23;20069;-84
2023/06/19 06:25:10;;;;;;;9.57;8.68;;;;;;;19.91;83.72;101050.84;6182244;23;20320;-83
2023/06/19 06:27:36;;;;;;;9.63;8.82;;;;;;;19.95;83.64;101047.69;6182834;23;20019;-83
2023/06/19 06:30:02;;;;;;;9.90;8.90;;;;;;;20.03;82.60;101050.34;6180811;23;20132;-82
2023/06/19 06:32:30;;;;;;;9.60;8.68;;;;;;;20.06;81.96;101051.84;6181989;23;20004;-82
2023/06/19 06:34:56;;;;;;;9.45;8.65;;;;;;;20.15;82.29;101058.00;6181689;23;19997;-83
2023/06/19 06:37:24;;;;;;;9.00;8.20;;;;;;;20.24;82.81;101065.00;6179023;23;20009;-84
2023/06/19 06:39:49;;;;;;;9.25;8.43;;;;;;;20.27;80.51;101061.97;6204753;23;20001;-84
2023/06/19 06:42:16;;;;;;;9.60;8.07;;;;;;;20.41;80.30;101080.00;6181346;23;20435;-78
2023/06/19 06:44:45;;;;;;;9.10;8.13;;;;;;;20.53;79.73;101081.31;6180610;23;20001;-79
2023/06/19 06:47:11;;;;;;;8.90;8.10;;;;;;;20.58;79.04;101078.13;6180174;23;20009;-79
2023/06/19 06:49:36;;;;;;;8.57;7.70;;;;;;;20.58;79.42;101080.78;6182512;23;20012;-80
2023/06/19 06:52:03;;;;;;;9.23;8.40;;;;;;;20.57;78.47;101090.66;6177530;23;20097;-78
2023/06/19 06:54:29;;;;;;;9.82;8.70;;;;;;;20.55;77.47;101090.00;6180769;23;20022;-79
2023/06/19 06:57:00;;;;;;;9.70;8.70;;;;;;;20.55;77.24;101087.31;6182236;23;20077;-78
2023/06/19 06:59:47;;;;;;;11.10;10.10;;;;;;;20.57;77.08;101093.34;6181156;23;20428;-80
2023/06/19 07:02:13;;;;;;;9.88;8.98;;;;;;;20.68;76.55;101092.13;6180593;23;20431;-80
2023/06/19 07:04:38;;;;;;;12.02;9.40;;;;;;;20.75;75.72;101092.25;6181236;23;20012;-80
2023/06/19 07:07:05;;;;;;;12.98;9.52;;;;;;;20.70;75.45;101099.97;6181955;23;20011;-83
2023/06/19 07:09:46;;;;;;;10.85;9.75;;;;;;;20.84;75.54;101097.41;6181563;23;20372;-84
2023/06/19 07:12:12;;;;;;;11.43;9.85;;;;;;;21.07;74.36;101094.78;6181647;23;20013;-84
2023/06/19 07:14:40;;;;;;;11.18;10.07;;;;;;;21.22;73.51;101114.44;6182475;23;20028;-84
2023/06/19 07:17:07;;;;;;;9.95;8.95;;;;;;;21.38;72.87;101099.31;6180762;23;20001;-84
2023/06/19 07:19:33;;;;;;;9.95;8.90;;;;;;;21.43;71.66;101104.97;6180585;23;20080;-85
2023/06/19 07:22:04;;;;;;;10.68;8.65;;;;;;;21.70;70.81;101108.97;6180348;23;20013;-85
2023/06/19 07:24:33;;;;;;;9.98;8.98;;;;;;;21.76;70.99;101113.59;6180232;23;20009;-84
2023/06/19 07:26:58;;;;;;;10.13;8.63;;;;;;;21.71;70.97;101116.81;6180848;23;20064;-84
2023/06/19 07:29:25;;;;;;;8.63;7.78;;;;;;;21.95;70.05;101113.09;6181465;23;20036;-84
2023/06/19 07:31:50;;;;;;;9.52;8.10;;;;;;;22.12;69.10;101116.50;6181188;23;20363;-84
2023/06/19 07:34:16;;;;;;;8.93;7.97;;;;;;;22.32;68.64;101114.94;6180817;23;20001;-83
2023/06/19 07:36:42;;;;;;;9.35;8.45;;;;;;;22.58;66.83;101116.34;6181422;23;20266;-86
2023/06/19 07:39:13;;;;;;;10.93;7.93;;;;;;;22.70;66.47;101122.91;6180458;23;20034;-84
2023/06/19 07:41:39;;;;;;;8.88;7.90;;;;;;;22.67;65.97;101112.53;6179498;23;20012;-84
2023/06/19 07:44:06;;;;;;;9.07;7.60;;;;;;;22.43;66.94;101127.91;6178570;23;20020;-84
2023/06/19 07:46:32;;;;;;;10.10;7.82;;;;;;;22.27;66.99;101114.66;6179695;23;20005;-85
2023/06/19 07:48:57;;;;;;;8.90;7.70;;;;;;;22.28;67.13;101118.16;6179924;23;20399;-85
2023/06/19 07:51:23;;;;;;;8.50;7.65;;;;;;;22.46;66.85;101114.13;6179907;23;20005;-84
2023/06/19 07:53:48;;;;;;;11.15;7.32;;;;;;;22.58;66.40;101119.88;6179777;23;20627;-84
2023/06/19 07:56:13;;;;;;;8.07;6.90;;;;;;;22.66;66.28;101122.44;6180788;23;20001;-84
2023/06/19 07:58:39;;;;;;;10.63;7.20;;;;;;;22.69;66.30;101116.72;6181603;23;20000;-85
2023/06/19 08:01:05;;;;;;;8.63;6.93;;;;;;;23.05;65.14;101121.31;6180236;23;20079;-84
2023/06/19 08:03:30;;;;;;;9.98;6.70;;;;;;;23.30;64.51;101129.88;6180584;23;20008;-84
2023/06/19 08:05:56;;;;;;;10.32;7.15;;;;;;;23.52;62.90;101126.19;6182478;23;20005;-82
2023/06/19 08:08:21;;;;;;;8.18;6.88;;;;;;;23.69;61.31;101122.25;6182936;23;20001;-85
2023/06/19 08:10:47;;;;;;;7.50;6.70;;;;;;;23.79;59.79;101129.16;6182803;23;20501;-84
2023/06/19 08:13:13;;;;;;;9.32;6.75;;;;;;;23.87;60.19;101131.72;6181356;23;20004;-84
2023/06/19 08:15:38;;;;;;;7.97;6.78;;;;;;;23.86;59.62;101125.50;6181954;23;20056;-82
2023/06/19 08:18:04;;;;;;;7.28;6.43;;;;;;;24.03;59.84;101134.16;6183893;23;20001;-85
2023/06/19 08:20:30;;;;;;;6.88;6.20;;;;;;;24.33;58.14;101134.78;6182792;23;20020;-84
2023/06/19 08:22:56;;;;;;;9.07;6.53;;;;;;;24.59;57.48;101124.22;6182591;23;20489;-84
2023/06/19 08:25:21;;;;;;;8.15;6.32;;;;;;;24.80;57.31;101125.13;6179228;23;20431;-84
2023/06/19 08:27:48;;;;;;;8.63;7.00;;;;;;;24.83;55.58;101116.69;6206704;23;20063;-84
2023/06/19 08:30:13;;;;;;;7.95;6.80;;;;;;;24.76;56.40;101122.00;6182520;23;20001;-84
2023/06/19 08:32:38;;;;;;;7.68;6.82;;;;;;;24.63;55.80;101135.41;6184533;23;20005;-84
2023/06/19 08:35:04;;;;;;;6.90;6.10;;;;;;;24.69;56.34;101140.81;6183340;23;20008;-83
2023/06/19 08:37:30;;;;;;;7.38;6.60;;;;;;;24.65;56.27;101141.41;6181956;23;20019;-83
2023/06/19 08:39:59;;;;;;;8.93;7.38;;;;;;;24.33;57.01;101154.44;6182591;23;20012;-83
2023/06/19 08:42:24;;;;;;;8.38;7.28;;;;;;;24.14;58.30;101152.44;6182039;23;20020;-84
2023/06/19 08:44:51;;;;;;;7.93;7.22;;;;;;;23.87;58.75;101155.91;6181102;23;20005;-83
2023/06/19 08:47:16;;;;;;;7.72;6.32;;;;;;;23.98;59.24;101148.13;6181729;23;20076;-84
2023/06/19 08:49:42;;;;;;;9.75;6.63;;;;;;;24.20;58.27;101154.34;6181233;23;20044;-86
2023/06/19 08:52:08;;;;;;;10.27;6.25;;;;;;;24.40;58.34;101154.50;6182288;23;20452;-85
2023/06/19 08:54:42;;;;;;;8.30;7.20;;;;;;;24.48;57.15;101164.28;6183564;23;20027;-84
2023/06/19 08:57:09;;;;;;;8.07;7.20;;;;;;;24.66;57.67;101175.38;6182165;23;20339;-84
2023/06/19 08:59:35;;;;;;;10.07;7.10;;;;;;;24.74;56.71;101175.22;6184003;23;20005;-84
2023/06/19 09:02:00;;;;;;;10.50;7.28;;;;;;;24.87;57.52;101166.41;6182307;23;20364;-84
2023/06/19 09:04:36;;;;;;;8.32;6.80;;;;;;;24.49;57.41;101180.25;6181982;23;20028;-85
2023/06/19 09:07:03;;;;;;;8.85;7.22;;;;;;;24.28;57.28;101173.03;6180341;23;20471;-84
2023/06/19 09:09:30;;;;;;;7.93;6.95;;;;;;;24.23;57.76;101172.75;6182825;23;20835;-83
2023/06/19 09:12:04;;;;;;;10.93;7.05;;;;;;;24.37;57.44;101187.16;6184262;23;20009;-84
2023/06/19 09:14:33;;;;;;;9.43;6.88;;;;;;;24.91;56.04;101173.03;6182686;23;20009;-84
2023/06/19 09:17:05;;;;;;;10.95;6.50;;;;;;;25.55;54.47;101173.50;6182462;23;20024;-84
2023/06/19 09:19:31;;;;;;;10.93;7.03;;;;;;;26.00;52.29;101163.03;6181565;23;20004;-84
2023/06/19 09:22:10;;;;;;;10.70;7.75;;;;;;;26.18;50.94;101182.13;6182480;23;20375;-84
2023/06/19 09:24:40;;;;;;;7.60;6.25;;;;;;;26.38;50.52;101182.13;6183341;23;20005;-85
2023/06/19 09:27:12;;;;;;;8.23;7.03;;;;;;;26.26;49.78;101189.19;6181967;23;20005;-85
2023/06/19 09:29:44;;;;;;;9.43;7.50;;;;;;;26.22;49.40;101183.38;6181155;23;20011;-83
2023/06/19 09:32:23;;;;;;;11.60;7.43;;;;;;;26.14;50.07;101186.28;6182238;23;20076;-83
2023/06/19 09:34:51;;;;;;;10.73;7.10;;;;;;;25.98;50.09;101193.94;6182246;23;20079;-83
2023/06/19 09:37:23;;;;;;;10.10;8.23;;;;;;;26.20;49.82;101196.22;6182710;23;20012;-84
2023/06/19 09:39:53;;;;;;;7.72;6.85;;;;;;;26.34;48.50;101185.47;6179601;23;20016;-84
2023/06/19 09:42:29;;;;;;;9.15;6.43;;;;;;;26.62;48.58;101194.16;6180515;23;20005;-83
2023/06/19 09:45:00;;;;;;;9.00;7.18;;;;;;;26.68;48.46;101206.81;6181056;23;20032;-84
2023/06/19 09:47:30;;;;;;;10.68;6.68;;;;;;;26.54;48.93;101208.72;6178128;23;20005;-85
2023/06/19 09:49:57;;;;;;;7.82;7.10;;;;;;;26.24;48.01;101202.03;6182379;23;20446;-83
2023/06/19 09:52:30;;;;;;;10.02;7.15;;;;;;;25.84;49.56;101195.78;6180673;23;20009;-83
2023/06/19 09:55:06;;;;;;;11.70;7.30;;;;;;;25.87;48.69;101195.38;6182357;23;20000;-84
2023/06/19 09:57:38;;;;;;;10.13;6.80;;;;;;;26.04;50.24;101195.81;6183750;23;20374;-82
2023/06/19 10:02:39;;;;;;;9.07;6.80;;;;;;;25.79;50.45;101201.81;6185188;23;20013;-83
2023/06/19 10:05:04;;;;;;;8.75;7.20;;;;;;;25.64;49.78;101205.69;6183320;23;20001;-84
2023/06/19 10:07:35;;;;;;;10.48;7.22;;;;;;;25.76;50.39;101212.16;6182109;23;20008;-84
2023/06/19 10:10:06;;;;;;;8.00;6.93;;;;;;;26.01;49.49;101205.13;6180029;23;20009;-85
2023/06/19 10:13:03;;;;;;;9.38;7.32;;;;;;;26.35;48.96;101203.31;6181622;23;20035;-85
2023/06/19 10:15:32;;;;;;;8.95;6.75;;;;;;;26.37;48.13;101199.38;6179041;23;20457;-84
2023/06/19 10:18:02;;;;;;;8.90;7.65;;;;;;;26.42;48.62;101204.16;6181956;23;20013;-84
2023/06/19 10:21:02;;;;;;;10.85;7.65;;;;;;;26.36;48.84;101204.97;6182636;23;20011;-84
2023/06/19 10:23:28;;;;;;;8.50;7.68;;;;;;;25.96;48.95;101209.50;6181627;23;20462;-85
2023/06/19 10:26:04;;;;;;;8.55;7.40;;;;;;;26.11;48.87;101207.44;6182494;23;20005;-83
2023/06/19 10:28:31;;;;;;;8.77;6.65;;;;;;;26.51;47.40;101200.19;6181675;23;20005;-84
2023/06/19 10:31:05;;;;;;;8.80;7.00;;;;;;;26.64;48.39;101202.88;6183449;23;20140;-84
2023/06/19 10:33:33;;;;;;;7.70;7.00;;;;;;;26.52;46.90;101204.56;6182024;23;20372;-83
2023/06/19 10:36:00;;;;;;;8.50;6.28;;;;;;;26.87;45.62;101205.13;6181860;23;20005;-84
2023/06/19 10:38:26;;;;;;;7.20;6.50;;;;;;;27.08;44.45;101209.44;6182152;23;20005;-83
2023/06/19 10:41:03;;;;;;;10.40;6.03;;;;;;;27.28;45.59;101207.50;6181836;23;20017;-83
2023/06/19 10:43:32;;;;;;;6.72;5.63;;;;;;;27.29;44.82;101209.16;6177669;23;20044;-84
2023/06/19 10:45:59;;;;;;;11.52;7.00;;;;;;;27.17;45.02;101213.56;6181920;23;20020;-84
2023/06/19 10:48:24;;;;;;;7.55;6.18;;;;;;;27.07;45.38;101207.78;6180603;23;20451;-84
2023/06/19 10:50:51;;;;;;;10.85;5.82;;;;;;;27.10;43.45;101212.75;6181749;23;20001;-84
2023/06/19 10:53:25;;;;;;;8.05;5.57;;;;;;;27.00;44.89;101212.38;6181610;23;20005;-84
2023/06/19 10:55:55;;;;;;;7.70;6.32;;;;;;;26.82;45.41;101203.06;6182574;23;20114;-84
2023/06/19 10:58:21;;;;;;;8.63;6.32;;;;;;;26.75;45.69;101193.28;6181895;23;20370;-84
2023/06/19 11:00:46;;;;;;;11.20;6.63;;;;;;;26.78;45.63;101196.41;6182353;23;20005;-84
2023/06/19 11:03:15;;;;;;;8.10;6.72;;;;;;;26.51;45.69;101192.09;6180287;23;20320;-83
2023/06/19 11:05:44;;;;;;;9.85;6.85;;;;;;;26.31;46.89;101197.47;6180771;23;20012;-83
2023/06/19 11:08:10;;;;;;;11.25;6.85;;;;;;;26.80;46.73;101191.63;6180302;23;20012;-84
2023/06/19 11:10:35;;;;;;;11.32;6.93;;;;;;;26.74;44.35;101194.34;6180588;23;20001;-84
2023/06/19 11:13:00;;;;;;;11.15;7.60;;;;;;;26.51;44.65;101186.72;6181606;23;20004;-83
2023/06/19 11:15:35;;;;;;;7.45;6.75;;;;;;;26.63;46.72;101189.59;6181442;23;20001;-83
2023/06/19 11:18:02;;;;;;;8.98;6.88;;;;;;;27.00;45.21;101190.78;6178991;23;20074;-83
2023/06/19 11:20:28;;;;;;;8.98;7.07;;;;;;;27.24;43.89;101181.97;6181030;23;20005;-83
2023/06/19 11:23:01;;;;;;;8.43;6.72;;;;;;;27.28;45.18;101179.66;6182008;23;20005;-84
2023/06/19 11:25:40;;;;;;;10.20;6.72;;;;;;;27.34;42.95;101189.59;6181144;23;20464;-83
2023/06/19 11:28:22;;;;;;;9.70;7.10;;;;;;;27.57;43.26;101180.94;6181780;23;20009;-83